sensor_id;sensor_type;location;lat;lon;timestamp;pressure;altitude;pressure_sealevel;temperature;humidity
48555;BME280;34336;48.270;16.716;2023-02-13T00:00:22;78783.91;;;18.16;80.55
48555;BME280;34336;48.270;16.716;2023-02-13T00:02:49;78776.19;;;18.16;80.69
48555;BME280;34336;48.270;16.716;2023-02-13T00:05:17;78774.28;;;18.16;79.91
48555;BME280;34336;48.270;16.716;2023-02-13T00:07:44;78764.63;;;18.16;79.72
48555;BME280;34336;48.270;16.716;2023-02-13T00:10:12;78764.63;;;18.16;79.04
48555;BME280;34336;48.270;16.716;2023-02-13T00:12:39;78760.78;;;18.16;78.60
48555;BME280;34336;48.270;16.716;2023-02-13T00:15:06;78760.78;;;18.16;79.02
48555;BME280;34336;48.270;16.716;2023-02-13T00:17:33;78756.91;;;18.16;78.67
48555;BME280;34336;48.270;16.716;2023-02-13T00:20:00;78762.72;;;18.16;78.83
48555;BME280;34336;48.270;16.716;2023-02-13T00:22:27;78764.63;;;18.16;79.19
48555;BME280;34336;48.270;16.716;2023-02-13T00:24:53;78760.78;;;18.16;78.51
48555;BME280;34336;48.270;16.716;2023-02-13T00:27:20;78764.63;;;18.16;78.35
48555;BME280;34336;48.270;16.716;2023-02-13T00:29:47;78764.63;;;18.16;78.49
48555;BME280;34336;48.270;16.716;2023-02-13T00:32:13;78776.19;;;18.16;78.49
48555;BME280;34336;48.270;16.716;2023-02-13T00:34:40;78785.84;;;18.16;78.53
48555;BME280;34336;48.270;16.716;2023-02-13T00:37:09;78801.28;;;18.16;78.34
48555;BME280;34336;48.270;16.716;2023-02-13T00:39:36;78814.78;;;18.16;79.04
48555;BME280;34336;48.270;16.716;2023-02-13T00:42:04;78826.34;;;18.16;79.47
48555;BME280;34336;48.270;16.716;2023-02-13T00:44:30;78834.06;;;18.16;79.59
48555;BME280;34336;48.270;16.716;2023-02-13T00:46:57;78830.19;;;18.16;80.17
48555;BME280;34336;48.270;16.716;2023-02-13T00:49:24;78828.28;;;18.16;79.93
48555;BME280;34336;48.270;16.716;2023-02-13T00:51:50;78828.28;;;18.16;79.99
48555;BME280;34336;48.270;16.716;2023-02-13T00:54:18;78847.56;;;18.16;79.85
48555;BME280;34336;48.270;16.716;2023-02-13T00:56:44;78847.56;;;18.16;80.47
48555;BME280;34336;48.270;16.716;2023-02-13T00:59:11;78853.34;;;18.16;80.28
48555;BME280;34336;48.270;16.716;2023-02-13T01:01:38;78853.34;;;18.16;81.02
48555;BME280;34336;48.270;16.716;2023-02-13T01:04:05;78851.41;;;18.16;81.18
48555;BME280;34336;48.270;16.716;2023-02-13T01:06:31;78853.34;;;18.16;81.08
48555;BME280;34336;48.270;16.716;2023-02-13T01:08:58;78849.47;;;18.16;81.15
48555;BME280;34336;48.270;16.716;2023-02-13T01:11:25;78849.47;;;18.16;81.43
48555;BME280;34336;48.270;16.716;2023-02-13T01:13:51;78853.34;;;18.16;81.87
48555;BME280;34336;48.270;16.716;2023-02-13T01:16:19;78859.13;;;18.16;80.94
48555;BME280;34336;48.270;16.716;2023-02-13T01:18:45;78857.19;;;18.16;79.54
48555;BME280;34336;48.270;16.716;2023-02-13T01:21:19;78876.47;;;18.16;79.78
48555;BME280;34336;48.270;16.716;2023-02-13T01:23:46;78888.03;;;18.16;80.99
48555;BME280;34336;48.270;16.716;2023-02-13T01:26:21;78895.75;;;18.16;81.14
48555;BME280;34336;48.270;16.716;2023-02-13T01:28:53;78891.91;;;18.16;82.11
48555;BME280;34336;48.270;16.716;2023-02-13T01:31:20;78888.03;;;18.16;82.45
48555;BME280;34336;48.270;16.716;2023-02-13T01:33:49;78889.97;;;18.16;82.86
48555;BME280;34336;48.270;16.716;2023-02-13T01:36:19;78891.91;;;18.16;83.12
48555;BME280;34336;48.270;16.716;2023-02-13T01:38:46;78891.91;;;18.16;83.26
48555;BME280;34336;48.270;16.716;2023-02-13T01:41:13;78886.13;;;18.16;83.32
48555;BME280;34336;48.270;16.716;2023-02-13T01:44:01;78884.19;;;18.16;83.41
48555;BME280;34336;48.270;16.716;2023-02-13T01:49:15;78876.47;;;18.16;83.58
48555;BME280;34336;48.270;16.716;2023-02-13T01:51:44;78882.25;;;18.16;83.61
48555;BME280;34336;48.270;16.716;2023-02-13T01:54:19;78874.53;;;18.16;83.43
48555;BME280;34336;48.270;16.716;2023-02-13T01:56:49;78872.63;;;18.16;83.58
48555;BME280;34336;48.270;16.716;2023-02-13T01:59:21;78872.63;;;18.16;83.69
48555;BME280;34336;48.270;16.716;2023-02-13T02:01:50;78868.75;;;18.16;83.82
48555;BME280;34336;48.270;16.716;2023-02-13T02:04:22;78862.97;;;18.16;83.82
48555;BME280;34336;48.270;16.716;2023-02-13T02:06:54;78861.06;;;18.16;83.61
48555;BME280;34336;48.270;16.716;2023-02-13T02:09:29;78870.69;;;18.16;83.60
48555;BME280;34336;48.270;16.716;2023-02-13T02:14:54;78880.34;;;18.16;84.08
48555;BME280;34336;48.270;16.716;2023-02-13T02:17:23;78895.75;;;18.16;83.75
48555;BME280;34336;48.270;16.716;2023-02-13T02:23:12;78884.19;;;18.16;83.50
48555;BME280;34336;48.270;16.716;2023-02-13T02:39:55;78911.19;;;18.16;85.32
48555;BME280;34336;48.270;16.716;2023-02-13T02:42:56;78899.63;;;18.16;85.40
48555;BME280;34336;48.270;16.716;2023-02-13T02:48:16;78893.84;;;18.16;85.32
48555;BME280;34336;48.270;16.716;2023-02-13T02:51:23;78909.25;;;18.16;84.63
48555;BME280;34336;48.270;16.716;2023-02-13T02:54:24;78922.75;;;18.16;84.97
48555;BME280;34336;48.270;16.716;2023-02-13T02:57:15;78934.31;;;18.16;85.33
48555;BME280;34336;48.270;16.716;2023-02-13T02:59:48;78942.03;;;18.16;85.53
48555;BME280;34336;48.270;16.716;2023-02-13T03:02:35;78930.47;;;18.16;85.74
48555;BME280;34336;48.270;16.716;2023-02-13T03:05:30;78926.63;;;18.16;86.04
48555;BME280;34336;48.270;16.716;2023-02-13T03:08:17;78936.25;;;18.16;85.40
48555;BME280;34336;48.270;16.716;2023-02-13T03:11:05;78942.03;;;18.16;84.87
48555;BME280;34336;48.270;16.716;2023-02-13T03:13:52;78945.91;;;18.16;85.38
48555;BME280;34336;48.270;16.716;2023-02-13T03:16:21;78945.91;;;18.16;86.16
48555;BME280;34336;48.270;16.716;2023-02-13T03:19:37;78943.97;;;18.16;86.59
48555;BME280;34336;48.270;16.716;2023-02-13T03:22:33;78953.59;;;18.16;87.04
48555;BME280;34336;48.270;16.716;2023-02-13T03:31:14;79013.38;;;18.16;87.51
48555;BME280;34336;48.270;16.716;2023-02-13T03:34:04;79019.19;;;18.16;88.57
48555;BME280;34336;48.270;16.716;2023-02-13T03:36:43;79028.81;;;18.16;88.73
48555;BME280;34336;48.270;16.716;2023-02-13T03:42:06;79019.19;;;18.16;89.79
48555;BME280;34336;48.270;16.716;2023-02-13T03:44:43;79007.59;;;18.16;89.84
48555;BME280;34336;48.270;16.716;2023-02-13T03:47:12;78996.03;;;18.16;90.02
48555;BME280;34336;48.270;16.716;2023-02-13T03:49:44;78999.88;;;18.16;90.05
48555;BME280;34336;48.270;16.716;2023-02-13T03:52:49;79011.47;;;18.16;90.16
48555;BME280;34336;48.270;16.716;2023-02-13T03:55:23;79011.47;;;18.16;90.89
48555;BME280;34336;48.270;16.716;2023-02-13T03:58:12;79011.47;;;18.16;91.15
48555;BME280;34336;48.270;16.716;2023-02-13T04:01:01;79007.59;;;18.16;91.64
48555;BME280;34336;48.270;16.716;2023-02-13T04:06:15;78988.31;;;18.16;92.16
48555;BME280;34336;48.270;16.716;2023-02-13T04:08:45;78974.81;;;18.16;92.53
48555;BME280;34336;48.270;16.716;2023-02-13T04:13:59;78963.25;;;18.16;92.88
48555;BME280;34336;48.270;16.716;2023-02-13T04:16:30;78955.53;;;18.16;92.52
48555;BME280;34336;48.270;16.716;2023-02-13T04:18:59;78965.19;;;18.16;92.45
48555;BME280;34336;48.270;16.716;2023-02-13T04:21:26;78963.25;;;18.16;92.31
48555;BME280;34336;48.270;16.716;2023-02-13T04:23:53;78963.25;;;18.16;92.19
48555;BME280;34336;48.270;16.716;2023-02-13T04:26:22;78972.91;;;18.16;91.98
48555;BME280;34336;48.270;16.716;2023-02-13T04:28:49;78980.59;;;18.16;91.55
48555;BME280;34336;48.270;16.716;2023-02-13T04:31:15;78984.47;;;18.16;91.46
48555;BME280;34336;48.270;16.716;2023-02-13T04:33:42;78982.53;;;18.16;91.88
48555;BME280;34336;48.270;16.716;2023-02-13T04:36:09;78980.59;;;18.16;92.07
48555;BME280;34336;48.270;16.716;2023-02-13T04:38:35;78992.19;;;18.16;91.55
48555;BME280;34336;48.270;16.716;2023-02-13T04:41:02;78999.88;;;18.16;91.43
48555;BME280;34336;48.270;16.716;2023-02-13T04:43:29;79011.47;;;18.16;91.60
48555;BME280;34336;48.270;16.716;2023-02-13T04:45:55;79015.31;;;18.16;92.07
48555;BME280;34336;48.270;16.716;2023-02-13T04:48:22;79009.53;;;18.16;93.17
48555;BME280;34336;48.270;16.716;2023-02-13T04:50:49;79017.25;;;18.16;94.00
48555;BME280;34336;48.270;16.716;2023-02-13T04:53:15;79011.47;;;18.16;93.87
48555;BME280;34336;48.270;16.716;2023-02-13T04:55:42;79011.47;;;18.16;94.13
48555;BME280;34336;48.270;16.716;2023-02-13T04:58:09;79030.75;;;18.16;94.28
48555;BME280;34336;48.270;16.716;2023-02-13T05:00:35;79015.31;;;18.16;94.10
48555;BME280;34336;48.270;16.716;2023-02-13T05:03:04;79007.59;;;18.16;94.22
48555;BME280;34336;48.270;16.716;2023-02-13T05:05:32;79007.59;;;18.16;95.14
48555;BME280;34336;48.270;16.716;2023-02-13T05:07:58;78999.88;;;18.16;95.42
48555;BME280;34336;48.270;16.716;2023-02-13T05:10:25;79003.75;;;18.16;95.01
48555;BME280;34336;48.270;16.716;2023-02-13T05:12:52;78992.19;;;18.16;95.08
48555;BME280;34336;48.270;16.716;2023-02-13T05:15:19;78988.31;;;18.16;95.38
48555;BME280;34336;48.270;16.716;2023-02-13T05:17:46;78982.53;;;18.16;95.44
48555;BME280;34336;48.270;16.716;2023-02-13T05:20:13;78976.75;;;18.16;95.46
48555;BME280;34336;48.270;16.716;2023-02-13T05:22:44;78992.19;;;18.16;94.89
48555;BME280;34336;48.270;16.716;2023-02-13T05:25:30;78980.59;;;18.16;95.31
48555;BME280;34336;48.270;16.716;2023-02-13T05:27:56;78967.09;;;18.16;94.78
48555;BME280;34336;48.270;16.716;2023-02-13T05:30:23;78976.75;;;18.16;94.09
48555;BME280;34336;48.270;16.716;2023-02-13T05:32:50;78984.47;;;18.16;94.16
48555;BME280;34336;48.270;16.716;2023-02-13T05:35:18;78984.47;;;18.16;94.63
48555;BME280;34336;48.270;16.716;2023-02-13T05:37:44;78980.59;;;18.16;94.57
48555;BME280;34336;48.270;16.716;2023-02-13T05:40:12;78982.53;;;18.16;94.71
48555;BME280;34336;48.270;16.716;2023-02-13T05:42:39;78986.38;;;18.16;94.21
48555;BME280;34336;48.270;16.716;2023-02-13T05:45:08;78986.38;;;18.16;94.20
48555;BME280;34336;48.270;16.716;2023-02-13T05:47:38;79005.69;;;18.16;93.81
48555;BME280;34336;48.270;16.716;2023-02-13T05:50:06;78999.88;;;18.16;93.84
48555;BME280;34336;48.270;16.716;2023-02-13T05:52:33;78992.19;;;18.16;94.28
48555;BME280;34336;48.270;16.716;2023-02-13T05:54:59;78988.31;;;18.16;94.43
48555;BME280;34336;48.270;16.716;2023-02-13T05:57:26;78986.38;;;18.16;94.22
48555;BME280;34336;48.270;16.716;2023-02-13T05:59:52;78980.59;;;18.16;94.86
48555;BME280;34336;48.270;16.716;2023-02-13T06:02:19;78982.53;;;18.16;94.44
48555;BME280;34336;48.270;16.716;2023-02-13T06:04:46;78978.69;;;18.16;94.54
48555;BME280;34336;48.270;16.716;2023-02-13T06:07:12;78976.75;;;18.16;94.18
48555;BME280;34336;48.270;16.716;2023-02-13T06:09:39;78970.97;;;18.16;94.30
48555;BME280;34336;48.270;16.716;2023-02-13T06:12:06;78980.59;;;18.16;94.17
48555;BME280;34336;48.270;16.716;2023-02-13T06:14:32;78969.03;;;18.16;94.69
48555;BME280;34336;48.270;16.716;2023-02-13T06:17:00;78976.75;;;18.16;94.61
48555;BME280;34336;48.270;16.716;2023-02-13T06:19:27;78970.97;;;18.16;94.94
48555;BME280;34336;48.270;16.716;2023-02-13T06:21:53;78970.97;;;18.16;94.95
48555;BME280;34336;48.270;16.716;2023-02-13T06:24:20;78965.19;;;18.16;95.17
48555;BME280;34336;48.270;16.716;2023-02-13T06:26:46;78957.47;;;18.16;94.90
48555;BME280;34336;48.270;16.716;2023-02-13T06:29:13;78961.31;;;18.16;95.06
48555;BME280;34336;48.270;16.716;2023-02-13T06:31:40;78953.59;;;18.16;94.24
48555;BME280;34336;48.270;16.716;2023-02-13T06:34:06;78953.59;;;18.16;94.30
48555;BME280;34336;48.270;16.716;2023-02-13T06:36:33;78961.31;;;18.16;94.09
48555;BME280;34336;48.270;16.716;2023-02-13T06:39:00;78963.25;;;18.16;94.01
48555;BME280;34336;48.270;16.716;2023-02-13T06:41:26;78965.19;;;18.16;94.19
48555;BME280;34336;48.270;16.716;2023-02-13T06:43:53;78967.09;;;18.16;94.12
48555;BME280;34336;48.270;16.716;2023-02-13T06:46:20;78967.09;;;18.16;93.96
48555;BME280;34336;48.270;16.716;2023-02-13T06:48:46;78974.81;;;18.16;93.89
48555;BME280;34336;48.270;16.716;2023-02-13T06:51:13;78969.03;;;18.16;93.75
48555;BME280;34336;48.270;16.716;2023-02-13T06:53:40;78965.19;;;18.16;94.20
48555;BME280;34336;48.270;16.716;2023-02-13T06:56:06;78957.47;;;18.16;94.24
48555;BME280;34336;48.270;16.716;2023-02-13T06:58:33;78947.81;;;18.16;94.13
48555;BME280;34336;48.270;16.716;2023-02-13T07:01:00;78947.81;;;18.16;93.95
48555;BME280;34336;48.270;16.716;2023-02-13T07:03:26;78942.03;;;18.16;94.30
48555;BME280;34336;48.270;16.716;2023-02-13T07:05:53;78942.03;;;18.16;93.87
48555;BME280;34336;48.270;16.716;2023-02-13T07:08:20;78934.31;;;18.16;93.91
48555;BME280;34336;48.270;16.716;2023-02-13T07:10:46;78928.53;;;18.16;93.98
48555;BME280;34336;48.270;16.716;2023-02-13T07:13:13;78926.63;;;18.16;93.62
48555;BME280;34336;48.270;16.716;2023-02-13T07:15:40;78918.91;;;18.16;93.69
48555;BME280;34336;48.270;16.716;2023-02-13T07:18:06;78922.75;;;18.16;93.64
48555;BME280;34336;48.270;16.716;2023-02-13T07:20:33;78918.91;;;18.16;93.15
48555;BME280;34336;48.270;16.716;2023-02-13T07:23:02;78918.91;;;18.16;92.87
48555;BME280;34336;48.270;16.716;2023-02-13T07:25:29;78911.19;;;18.16;92.48
48555;BME280;34336;48.270;16.716;2023-02-13T07:28:05;78911.19;;;18.16;92.28
48555;BME280;34336;48.270;16.716;2023-02-13T07:30:33;78907.31;;;18.16;92.10
48555;BME280;34336;48.270;16.716;2023-02-13T07:33:01;78916.97;;;18.16;91.81
48555;BME280;34336;48.270;16.716;2023-02-13T07:35:28;78924.69;;;18.16;91.59
48555;BME280;34336;48.270;16.716;2023-02-13T07:37:55;78920.81;;;18.16;91.80
48555;BME280;34336;48.270;16.716;2023-02-13T07:40:22;78920.81;;;18.16;91.81
48555;BME280;34336;48.270;16.716;2023-02-13T07:42:48;78920.81;;;18.16;91.76
48555;BME280;34336;48.270;16.716;2023-02-13T07:45:15;78920.81;;;18.16;92.05
48555;BME280;34336;48.270;16.716;2023-02-13T07:47:42;78915.03;;;18.16;91.96
48555;BME280;34336;48.270;16.716;2023-02-13T07:50:09;78913.13;;;18.16;92.03
48555;BME280;34336;48.270;16.716;2023-02-13T07:52:36;78913.13;;;18.16;92.12
48555;BME280;34336;48.270;16.716;2023-02-13T07:55:04;78895.75;;;18.16;92.20
48555;BME280;34336;48.270;16.716;2023-02-13T07:57:32;78891.91;;;18.16;92.23
48555;BME280;34336;48.270;16.716;2023-02-13T07:59:58;78891.91;;;18.16;92.02
48555;BME280;34336;48.270;16.716;2023-02-13T08:02:25;78895.75;;;18.16;92.23
48555;BME280;34336;48.270;16.716;2023-02-13T08:04:52;78891.91;;;18.16;91.89
48555;BME280;34336;48.270;16.716;2023-02-13T08:07:18;78888.03;;;18.16;92.09
48555;BME280;34336;48.270;16.716;2023-02-13T08:09:45;78891.91;;;18.16;92.20
48555;BME280;34336;48.270;16.716;2023-02-13T08:12:31;78888.03;;;18.16;91.93
48555;BME280;34336;48.270;16.716;2023-02-13T08:15:00;78889.97;;;18.16;92.26
48555;BME280;34336;48.270;16.716;2023-02-13T08:17:26;78880.34;;;18.16;92.27
48555;BME280;34336;48.270;16.716;2023-02-13T08:19:53;78872.63;;;18.16;92.33
48555;BME280;34336;48.270;16.716;2023-02-13T08:22:20;78872.63;;;18.16;91.69
48555;BME280;34336;48.270;16.716;2023-02-13T08:24:47;78866.84;;;18.16;91.62
48555;BME280;34336;48.270;16.716;2023-02-13T08:27:14;78868.75;;;18.16;90.90
48555;BME280;34336;48.270;16.716;2023-02-13T08:29:41;78853.34;;;18.16;91.32
48555;BME280;34336;48.270;16.716;2023-02-13T08:32:08;78861.06;;;18.16;91.66
48555;BME280;34336;48.270;16.716;2023-02-13T08:34:35;78853.34;;;18.16;91.47
48555;BME280;34336;48.270;16.716;2023-02-13T08:37:02;78841.78;;;18.16;91.61
48555;BME280;34336;48.270;16.716;2023-02-13T08:39:29;78834.06;;;18.16;91.91
48555;BME280;34336;48.270;16.716;2023-02-13T08:41:55;78834.06;;;18.16;91.24
48555;BME280;34336;48.270;16.716;2023-02-13T08:44:22;78826.34;;;18.16;91.05
48555;BME280;34336;48.270;16.716;2023-02-13T08:46:49;78832.13;;;18.16;90.95
48555;BME280;34336;48.270;16.716;2023-02-13T08:49:15;78828.28;;;18.16;90.71
48555;BME280;34336;48.270;16.716;2023-02-13T08:51:42;78830.19;;;18.16;90.37
48555;BME280;34336;48.270;16.716;2023-02-13T08:54:09;78826.34;;;18.16;90.13
48555;BME280;34336;48.270;16.716;2023-02-13T08:56:35;78818.63;;;18.16;89.44
48555;BME280;34336;48.270;16.716;2023-02-13T08:59:02;78807.06;;;18.16;89.15
48555;BME280;34336;48.270;16.716;2023-02-13T09:01:29;78803.19;;;18.16;88.54
48555;BME280;34336;48.270;16.716;2023-02-13T09:03:55;78795.50;;;18.16;88.60
48555;BME280;34336;48.270;16.716;2023-02-13T09:06:22;78795.50;;;18.16;88.91
48555;BME280;34336;48.270;16.716;2023-02-13T09:08:52;78795.50;;;18.16;89.31
48555;BME280;34336;48.270;16.716;2023-02-13T09:11:19;78780.06;;;18.16;89.69
48555;BME280;34336;48.270;16.716;2023-02-13T09:13:51;78764.63;;;18.16;89.75
48555;BME280;34336;48.270;16.716;2023-02-13T09:16:19;78749.22;;;18.16;88.92
48555;BME280;34336;48.270;16.716;2023-02-13T09:18:47;78743.44;;;18.16;88.36
48555;BME280;34336;48.270;16.716;2023-02-13T09:21:14;78737.63;;;18.16;87.84
48555;BME280;34336;48.270;16.716;2023-02-13T09:23:41;78728.00;;;18.16;88.45
48555;BME280;34336;48.270;16.716;2023-02-13T09:26:12;78722.22;;;18.16;88.14
48555;BME280;34336;48.270;16.716;2023-02-13T09:28:40;78699.06;;;18.16;88.30
48555;BME280;34336;48.270;16.716;2023-02-13T09:31:12;78691.38;;;18.16;87.49
48555;BME280;34336;48.270;16.716;2023-02-13T09:33:44;78679.78;;;18.16;86.53
48555;BME280;34336;48.270;16.716;2023-02-13T09:36:13;78672.09;;;18.16;86.33
48555;BME280;34336;48.270;16.716;2023-02-13T09:38:41;78652.81;;;18.16;85.77
48555;BME280;34336;48.270;16.716;2023-02-13T09:41:20;78654.72;;;18.16;84.78
48555;BME280;34336;48.270;16.716;2023-02-13T09:43:54;78641.22;;;18.16;84.08
48555;BME280;34336;48.270;16.716;2023-02-13T09:46:35;78635.44;;;18.16;83.53
48555;BME280;34336;48.270;16.716;2023-02-13T09:49:15;78616.16;;;18.16;83.17
48555;BME280;34336;48.270;16.716;2023-02-13T09:51:44;78606.53;;;18.16;82.21
48555;BME280;34336;48.270;16.716;2023-02-13T09:54:16;78608.44;;;18.16;81.88
48555;BME280;34336;48.270;16.716;2023-02-13T09:59:57;78587.25;;;18.16;81.25
48555;BME280;34336;48.270;16.716;2023-02-13T10:10:57;78623.88;;;18.16;83.17
48555;BME280;34336;48.270;16.716;2023-02-13T10:16:35;78614.22;;;18.16;84.29
48555;BME280;34336;48.270;16.716;2023-02-13T10:19:34;78602.66;;;18.16;84.90
48555;BME280;34336;48.270;16.716;2023-02-13T10:22:03;78600.75;;;18.16;84.15
48555;BME280;34336;48.270;16.716;2023-02-13T10:24:50;78594.94;;;18.16;83.43
48555;BME280;34336;48.270;16.716;2023-02-13T10:27:23;78589.16;;;18.16;82.79
48555;BME280;34336;48.270;16.716;2023-02-13T10:29:57;78606.53;;;18.16;81.49
48555;BME280;34336;48.270;16.716;2023-02-13T10:32:41;78593.03;;;18.16;81.58
48555;BME280;34336;48.270;16.716;2023-02-13T10:35:18;78571.81;;;18.16;82.06
48555;BME280;34336;48.270;16.716;2023-02-13T10:37:51;78560.25;;;18.16;82.04
48555;BME280;34336;48.270;16.716;2023-02-13T10:40:19;78546.75;;;18.16;81.12
48555;BME280;34336;48.270;16.716;2023-02-13T10:42:58;78533.25;;;18.16;80.66
48555;BME280;34336;48.270;16.716;2023-02-13T10:49:02;78473.47;;;18.16;79.27
48555;BME280;34336;48.270;16.716;2023-02-13T10:51:55;78452.28;;;18.16;78.67
48555;BME280;34336;48.270;16.716;2023-02-13T11:00:21;78459.97;;;18.16;77.79
48555;BME280;34336;48.270;16.716;2023-02-13T11:02:50;78442.63;;;18.16;77.58
48555;BME280;34336;48.270;16.716;2023-02-13T11:05:27;78438.78;;;18.16;77.25
48555;BME280;34336;48.270;16.716;2023-02-13T11:07:56;78421.41;;;18.16;77.09
48555;BME280;34336;48.270;16.716;2023-02-13T11:10:25;78409.84;;;18.16;76.76
48555;BME280;34336;48.270;16.716;2023-02-13T11:12:52;78411.78;;;18.16;75.99
48555;BME280;34336;48.270;16.716;2023-02-13T11:15:20;78402.16;;;18.16;75.83
48555;BME280;34336;48.270;16.716;2023-02-13T11:17:48;78421.41;;;18.16;75.86
48555;BME280;34336;48.270;16.716;2023-02-13T11:22:51;78433.00;;;18.16;76.35
48555;BME280;34336;48.270;16.716;2023-02-13T11:25:24;78425.28;;;18.16;76.30
48555;BME280;34336;48.270;16.716;2023-02-13T11:28:06;78429.13;;;18.16;76.56
48555;BME280;34336;48.270;16.716;2023-02-13T11:30:35;78417.56;;;18.16;76.16
48555;BME280;34336;48.270;16.716;2023-02-13T11:35:42;78394.44;;;18.16;75.30
48555;BME280;34336;48.270;16.716;2023-02-13T11:38:27;78369.38;;;18.16;74.31
48555;BME280;34336;48.270;16.716;2023-02-13T11:41:14;78352.00;;;18.16;74.39
48555;BME280;34336;48.270;16.716;2023-02-13T11:43:48;78361.66;;;18.16;74.65
48555;BME280;34336;48.270;16.716;2023-02-13T11:46:22;78353.94;;;18.16;73.77
48555;BME280;34336;48.270;16.716;2023-02-13T11:49:00;78367.44;;;18.16;73.43
48555;BME280;34336;48.270;16.716;2023-02-13T11:54:15;78332.72;;;18.16;73.11
48555;BME280;34336;48.270;16.716;2023-02-13T11:56:50;78309.59;;;18.16;72.79
48555;BME280;34336;48.270;16.716;2023-02-13T11:59:38;78299.97;;;18.16;71.43
48555;BME280;34336;48.270;16.716;2023-02-13T12:02:16;78292.25;;;18.16;71.68
48555;BME280;34336;48.270;16.716;2023-02-13T12:04:43;78292.25;;;18.16;71.35
48555;BME280;34336;48.270;16.716;2023-02-13T12:09:53;78282.59;;;18.16;69.63
48555;BME280;34336;48.270;16.716;2023-02-13T12:12:37;78325.03;;;18.16;70.92
48555;BME280;34336;48.270;16.716;2023-02-13T12:15:18;78309.59;;;18.16;71.23
48555;BME280;34336;48.270;16.716;2023-02-13T12:17:51;78321.16;;;18.16;70.96
48555;BME280;34336;48.270;16.716;2023-02-13T12:20:18;78301.88;;;18.16;71.43
48555;BME280;34336;48.270;16.716;2023-02-13T12:23:08;78301.88;;;18.16;70.79
48555;BME280;34336;48.270;16.716;2023-02-13T12:25:52;78305.75;;;18.16;71.24
48555;BME280;34336;48.270;16.716;2023-02-13T12:42:49;78174.63;;;18.16;69.98
48555;BME280;34336;48.270;16.716;2023-02-13T12:48:21;78109.09;;;18.16;66.56
48555;BME280;34336;48.270;16.716;2023-02-13T13:10:32;78039.69;;;18.16;62.37
48555;BME280;34336;48.270;16.716;2023-02-13T13:18:21;77993.41;;;18.16;61.87
48555;BME280;34336;48.270;16.716;2023-02-13T13:21:09;78039.69;;;18.16;62.19
48555;BME280;34336;48.270;16.716;2023-02-13T13:23:45;78074.38;;;18.16;62.10
48555;BME280;34336;48.270;16.716;2023-02-13T13:28:53;78066.69;;;18.16;62.55
48555;BME280;34336;48.270;16.716;2023-02-13T13:31:22;78064.75;;;18.16;62.47
48555;BME280;34336;48.270;16.716;2023-02-13T13:33:54;78043.53;;;18.16;61.38
48555;BME280;34336;48.270;16.716;2023-02-13T13:36:44;78047.41;;;18.16;60.65
48555;BME280;34336;48.270;16.716;2023-02-13T13:44:39;78058.97;;;18.16;59.62
48555;BME280;34336;48.270;16.716;2023-02-13T13:49:54;78082.09;;;18.16;58.70
48555;BME280;34336;48.270;16.716;2023-02-13T13:54:49;78060.91;;;18.16;58.70
48555;BME280;34336;48.270;16.716;2023-02-13T13:57:23;78078.25;;;18.16;58.37
48555;BME280;34336;48.270;16.716;2023-02-13T14:02:48;78078.25;;;18.16;58.94
48555;BME280;34336;48.270;16.716;2023-02-13T14:07:56;78089.81;;;18.16;59.03
48555;BME280;34336;48.270;16.716;2023-02-13T14:20:50;78114.88;;;18.16;59.80
48555;BME280;34336;48.270;16.716;2023-02-13T14:31:41;78138.00;;;18.16;60.37
48555;BME280;34336;48.270;16.716;2023-02-13T14:36:45;78151.50;;;18.16;61.00
48555;BME280;34336;48.270;16.716;2023-02-13T14:41:55;78159.22;;;18.16;61.33
48555;BME280;34336;48.270;16.716;2023-02-13T14:46:53;78161.16;;;18.16;61.68
48555;BME280;34336;48.270;16.716;2023-02-13T14:49:27;78174.63;;;18.16;61.81
48555;BME280;34336;48.270;16.716;2023-02-13T14:51:58;78176.56;;;18.16;62.42
48555;BME280;34336;48.270;16.716;2023-02-13T14:54:41;78174.63;;;18.16;62.37
48555;BME280;34336;48.270;16.716;2023-02-13T14:57:29;78172.72;;;18.16;62.69
48555;BME280;34336;48.270;16.716;2023-02-13T14:59:59;78190.06;;;18.16;63.12
48555;BME280;34336;48.270;16.716;2023-02-13T15:02:32;78197.78;;;18.16;63.38
48555;BME280;34336;48.270;16.716;2023-02-13T15:05:03;78197.78;;;18.16;63.35
48555;BME280;34336;48.270;16.716;2023-02-13T15:07:37;78201.63;;;18.16;63.24
48555;BME280;34336;48.270;16.716;2023-02-13T15:12:59;78217.06;;;18.16;63.33
48555;BME280;34336;48.270;16.716;2023-02-13T15:15:35;78222.84;;;18.16;62.95
48555;BME280;34336;48.270;16.716;2023-02-13T15:18:07;78211.28;;;18.16;63.13
48555;BME280;34336;48.270;16.716;2023-02-13T15:20:37;78217.06;;;18.16;63.12
48555;BME280;34336;48.270;16.716;2023-02-13T15:23:05;78228.63;;;18.16;63.33
48555;BME280;34336;48.270;16.716;2023-02-13T15:25:35;78224.78;;;18.16;63.05
48555;BME280;34336;48.270;16.716;2023-02-13T15:28:04;78236.34;;;18.16;63.58
48555;BME280;34336;48.270;16.716;2023-02-13T15:30:34;78244.03;;;18.16;63.38
48555;BME280;34336;48.270;16.716;2023-02-13T15:35:36;78247.91;;;18.16;63.83
48555;BME280;34336;48.270;16.716;2023-02-13T15:38:23;78251.75;;;18.16;63.79
48555;BME280;34336;48.270;16.716;2023-02-13T15:40:52;78255.63;;;18.16;63.59
48555;BME280;34336;48.270;16.716;2023-02-13T15:43:24;78255.63;;;18.16;62.98
48555;BME280;34336;48.270;16.716;2023-02-13T15:45:53;78255.63;;;18.16;62.59
48555;BME280;34336;48.270;16.716;2023-02-13T15:48:24;78255.63;;;18.16;62.57
48555;BME280;34336;48.270;16.716;2023-02-13T15:50:51;78263.31;;;18.16;63.04
48555;BME280;34336;48.270;16.716;2023-02-13T15:53:18;78271.03;;;18.16;63.16
48555;BME280;34336;48.270;16.716;2023-02-13T15:55:58;78271.03;;;18.16;63.08
48555;BME280;34336;48.270;16.716;2023-02-13T15:58:29;78278.75;;;18.16;63.63